Airport View

Enter AWOS ICAO identifier for current METAR.

ex. KFNL

KPCM 250055Z AUTO 10010KT 10SM SCT014 25/24 A2996 RMK AO2

25 May 2020 01:00

Frequency: 120.025

Phone: 813-764-8259

Other Area AWOS: KLAL - KVDF - KZPH - KTPF

TAF KLAL 242341Z 2500/2524 09007KT P6SM -RA SCT050 BKN120 FM250400 08005KT P6SM VCSH FEW007 SCT015 OVC025 FM251200 07010KT 5SM -RA BKN007 OVC015 FM251600 08011G20KT 3SM -RA VCTS BKN007CB OVC015 AMD NOT SKED 2502/2511